Eugene, Oregon
Current Conditions -  °F | °C
As of 4:54 PM on Monday 20 Oct 2014 (Local Time) from KEUG Reporting Station
Moderate Rain Moderate Rain  
Wind Chill: 14°   Ceiling: 4800
Heat Index: 14°   Visibility: 6mi
Dew Point: 12°   Wind: 6mph
Humidity: 87%   Direction: 220°SW
Pressure: 29.82"   Gusts: NA
Location:  44.05°N, 123.08°W
Report Text: KEUG 202354Z 22005KT 6SM RA BR SCT037TCU BKN048 BKN065 BKN150 14/12 A2982 RMK AO2 RAB16 SLP098 TCU ALQDS P0014 60016 T01440122 10178 20139 53001 $
Loading
Personal Weather Stations






























Interactive Weather Map New forecast layout! Learn more

10-Day Weather Forecast

Advertisements
Track Severe Weather on mobile